sensor_id;sensor_type;location;lat;lon;timestamp;P1;durP1;ratioP1;P2;durP2;ratioP2
25169;SDS011;13129;48.012;10.352;2022-07-29T03:41:53;3.00;;;2.80;;
25169;SDS011;13129;48.012;10.352;2022-07-29T03:44:45;3.53;;;3.20;;
25169;SDS011;13129;48.012;10.352;2022-07-29T03:47:14;5.57;;;3.47;;
25169;SDS011;13129;48.012;10.352;2022-07-29T03:49:41;7.65;;;3.85;;
25169;SDS011;13129;48.012;10.352;2022-07-29T03:52:09;5.50;;;3.90;;
25169;SDS011;13129;48.012;10.352;2022-07-29T03:54:35;4.57;;;3.42;;
25169;SDS011;13129;48.012;10.352;2022-07-29T03:57:01;4.10;;;3.55;;
25169;SDS011;13129;48.012;10.352;2022-07-29T03:59:27;3.55;;;3.25;;
25169;SDS011;13129;48.012;10.352;2022-07-29T04:01:55;2.97;;;2.63;;
25169;SDS011;13129;48.012;10.352;2022-07-29T04:04:22;3.75;;;3.03;;
25169;SDS011;13129;48.012;10.352;2022-07-29T04:06:47;4.53;;;2.85;;
25169;SDS011;13129;48.012;10.352;2022-07-29T04:09:13;2.85;;;2.50;;
25169;SDS011;13129;48.012;10.352;2022-07-29T04:11:40;2.50;;;2.30;;
25169;SDS011;13129;48.012;10.352;2022-07-29T04:14:06;2.70;;;2.50;;
25169;SDS011;13129;48.012;10.352;2022-07-29T04:16:32;2.75;;;2.42;;
25169;SDS011;13129;48.012;10.352;2022-07-29T04:18:58;3.13;;;2.72;;
25169;SDS011;13129;48.012;10.352;2022-07-29T04:21:24;2.45;;;2.33;;
25169;SDS011;13129;48.012;10.352;2022-07-29T04:23:50;2.80;;;2.60;;
25169;SDS011;13129;48.012;10.352;2022-07-29T04:26:16;2.35;;;2.15;;
25169;SDS011;13129;48.012;10.352;2022-07-29T04:28:42;2.63;;;2.33;;
25169;SDS011;13129;48.012;10.352;2022-07-29T04:31:09;2.33;;;2.22;;
25169;SDS011;13129;48.012;10.352;2022-07-29T04:33:35;2.47;;;2.28;;
25169;SDS011;13129;48.012;10.352;2022-07-29T04:36:01;2.75;;;2.42;;
25169;SDS011;13129;48.012;10.352;2022-07-29T04:38:26;2.80;;;2.60;;
25169;SDS011;13129;48.012;10.352;2022-07-29T04:40:52;3.95;;;2.20;;
25169;SDS011;13129;48.012;10.352;2022-07-29T04:43:18;2.85;;;2.35;;
25169;SDS011;13129;48.012;10.352;2022-07-29T04:45:43;2.80;;;2.60;;
25169;SDS011;13129;48.012;10.352;2022-07-29T04:48:09;2.42;;;2.22;;
25169;SDS011;13129;48.012;10.352;2022-07-29T04:50:37;3.28;;;2.33;;
25169;SDS011;13129;48.012;10.352;2022-07-29T04:53:03;3.70;;;2.67;;
25169;SDS011;13129;48.012;10.352;2022-07-29T04:55:29;2.60;;;2.38;;
25169;SDS011;13129;48.012;10.352;2022-07-29T04:57:55;2.90;;;2.70;;
25169;SDS011;13129;48.012;10.352;2022-07-29T05:00:20;4.35;;;2.80;;
25169;SDS011;13129;48.012;10.352;2022-07-29T05:02:48;3.33;;;3.03;;
25169;SDS011;13129;48.012;10.352;2022-07-29T05:05:14;4.80;;;2.90;;
25169;SDS011;13129;48.012;10.352;2022-07-29T05:07:40;2.92;;;2.10;;
25169;SDS011;13129;48.012;10.352;2022-07-29T05:10:06;2.47;;;2.28;;
25169;SDS011;13129;48.012;10.352;2022-07-29T05:12:32;3.47;;;1.80;;
25169;SDS011;13129;48.012;10.352;2022-07-29T05:14:58;2.20;;;2.03;;
25169;SDS011;13129;48.012;10.352;2022-07-29T05:17:24;2.63;;;2.42;;
25169;SDS011;13129;48.012;10.352;2022-07-29T05:19:50;2.38;;;2.17;;
25169;SDS011;13129;48.012;10.352;2022-07-29T05:22:17;2.17;;;1.90;;
25169;SDS011;13129;48.012;10.352;2022-07-29T05:24:45;2.40;;;2.20;;
25169;SDS011;13129;48.012;10.352;2022-07-29T05:27:11;2.75;;;1.85;;
25169;SDS011;13129;48.012;10.352;2022-07-29T05:29:37;2.28;;;2.00;;
25169;SDS011;13129;48.012;10.352;2022-07-29T05:32:03;1.73;;;1.60;;
25169;SDS011;13129;48.012;10.352;2022-07-29T05:34:29;2.60;;;2.03;;
25169;SDS011;13129;48.012;10.352;2022-07-29T05:36:55;2.53;;;1.70;;
25169;SDS011;13129;48.012;10.352;2022-07-29T05:39:21;1.63;;;1.52;;
25169;SDS011;13129;48.012;10.352;2022-07-29T05:41:47;1.90;;;1.60;;
25169;SDS011;13129;48.012;10.352;2022-07-29T05:44:13;2.15;;;1.70;;
25169;SDS011;13129;48.012;10.352;2022-07-29T05:46:39;2.15;;;1.65;;
25169;SDS011;13129;48.012;10.352;2022-07-29T05:49:05;2.42;;;1.85;;
25169;SDS011;13129;48.012;10.352;2022-07-29T05:51:31;1.60;;;1.50;;
25169;SDS011;13129;48.012;10.352;2022-07-29T05:54:00;1.63;;;1.52;;
25169;SDS011;13129;48.012;10.352;2022-07-29T05:56:26;1.98;;;1.77;;
25169;SDS011;13129;48.012;10.352;2022-07-29T05:58:52;1.70;;;1.58;;
25169;SDS011;13129;48.012;10.352;2022-07-29T06:01:18;1.92;;;1.77;;
25169;SDS011;13129;48.012;10.352;2022-07-29T06:03:44;1.50;;;1.40;;
25169;SDS011;13129;48.012;10.352;2022-07-29T06:06:10;1.42;;;1.33;;
25169;SDS011;13129;48.012;10.352;2022-07-29T06:08:36;2.53;;;1.50;;
25169;SDS011;13129;48.012;10.352;2022-07-29T06:11:03;1.98;;;1.52;;
25169;SDS011;13129;48.012;10.352;2022-07-29T06:13:29;2.42;;;1.88;;
25169;SDS011;13129;48.012;10.352;2022-07-29T06:15:55;1.77;;;1.63;;
25169;SDS011;13129;48.012;10.352;2022-07-29T06:18:21;1.88;;;1.77;;
25169;SDS011;13129;48.012;10.352;2022-07-29T06:20:49;1.90;;;1.70;;
25169;SDS011;13129;48.012;10.352;2022-07-29T06:23:16;1.83;;;1.70;;
25169;SDS011;13129;48.012;10.352;2022-07-29T06:25:42;1.60;;;1.50;;
25169;SDS011;13129;48.012;10.352;2022-07-29T06:28:08;1.70;;;1.58;;
25169;SDS011;13129;48.012;10.352;2022-07-29T06:30:34;2.20;;;2.10;;
25169;SDS011;13129;48.012;10.352;2022-07-29T06:33:00;1.83;;;1.73;;
25169;SDS011;13129;48.012;10.352;2022-07-29T06:35:26;1.73;;;1.63;;
25169;SDS011;13129;48.012;10.352;2022-07-29T06:37:53;3.20;;;1.73;;
25169;SDS011;13129;48.012;10.352;2022-07-29T06:40:18;2.33;;;1.80;;
25169;SDS011;13129;48.012;10.352;2022-07-29T06:43:03;1.85;;;1.52;;
25169;SDS011;13129;48.012;10.352;2022-07-29T06:45:29;2.13;;;1.90;;
25169;SDS011;13129;48.012;10.352;2022-07-29T06:47:54;3.33;;;1.60;;
25169;SDS011;13129;48.012;10.352;2022-07-29T06:50:20;2.42;;;2.08;;
25169;SDS011;13129;48.012;10.352;2022-07-29T06:52:46;1.77;;;1.67;;
25169;SDS011;13129;48.012;10.352;2022-07-29T06:55:12;1.90;;;1.80;;
25169;SDS011;13129;48.012;10.352;2022-07-29T06:57:39;1.98;;;1.85;;
25169;SDS011;13129;48.012;10.352;2022-07-29T07:00:04;2.30;;;1.95;;
25169;SDS011;13129;48.012;10.352;2022-07-29T07:02:30;3.33;;;1.83;;
25169;SDS011;13129;48.012;10.352;2022-07-29T07:04:57;2.53;;;2.13;;
25169;SDS011;13129;48.012;10.352;2022-07-29T07:07:23;2.22;;;2.10;;
25169;SDS011;13129;48.012;10.352;2022-07-29T07:09:49;2.25;;;2.15;;
25169;SDS011;13129;48.012;10.352;2022-07-29T07:12:15;2.60;;;1.90;;
25169;SDS011;13129;48.012;10.352;2022-07-29T07:14:41;1.85;;;1.75;;
25169;SDS011;13129;48.012;10.352;2022-07-29T07:17:06;2.00;;;1.90;;
25169;SDS011;13129;48.012;10.352;2022-07-29T07:19:32;2.28;;;1.90;;
25169;SDS011;13129;48.012;10.352;2022-07-29T07:21:58;3.38;;;2.10;;
25169;SDS011;13129;48.012;10.352;2022-07-29T07:24:24;3.53;;;2.15;;
25169;SDS011;13129;48.012;10.352;2022-07-29T07:26:50;5.63;;;2.00;;
25169;SDS011;13129;48.012;10.352;2022-07-29T07:29:16;2.17;;;2.08;;
25169;SDS011;13129;48.012;10.352;2022-07-29T07:31:42;2.88;;;2.40;;
25169;SDS011;13129;48.012;10.352;2022-07-29T07:34:07;2.55;;;2.00;;
25169;SDS011;13129;48.012;10.352;2022-07-29T07:36:33;2.25;;;2.05;;
25169;SDS011;13129;48.012;10.352;2022-07-29T07:38:58;1.83;;;1.73;;
25169;SDS011;13129;48.012;10.352;2022-07-29T07:41:24;2.67;;;2.10;;
25169;SDS011;13129;48.012;10.352;2022-07-29T07:43:50;2.40;;;2.20;;
25169;SDS011;13129;48.012;10.352;2022-07-29T07:46:15;1.98;;;1.88;;
25169;SDS011;13129;48.012;10.352;2022-07-29T07:48:41;2.33;;;2.17;;
25169;SDS011;13129;48.012;10.352;2022-07-29T07:51:07;2.00;;;1.90;;
25169;SDS011;13129;48.012;10.352;2022-07-29T07:53:33;2.08;;;1.70;;
25169;SDS011;13129;48.012;10.352;2022-07-29T07:55:59;4.40;;;1.80;;
25169;SDS011;13129;48.012;10.352;2022-07-29T07:58:25;2.15;;;2.00;;
25169;SDS011;13129;48.012;10.352;2022-07-29T08:00:51;2.20;;;2.10;;
25169;SDS011;13129;48.012;10.352;2022-07-29T08:03:16;2.70;;;2.50;;
25169;SDS011;13129;48.012;10.352;2022-07-29T08:05:42;2.88;;;2.50;;
25169;SDS011;13129;48.012;10.352;2022-07-29T08:08:08;2.20;;;2.10;;
25169;SDS011;13129;48.012;10.352;2022-07-29T08:10:33;2.60;;;2.40;;
25169;SDS011;13129;48.012;10.352;2022-07-29T08:13:18;2.40;;;2.20;;
25169;SDS011;13129;48.012;10.352;2022-07-29T08:15:44;2.75;;;2.42;;
25169;SDS011;13129;48.012;10.352;2022-07-29T08:18:11;3.20;;;2.40;;
25169;SDS011;13129;48.012;10.352;2022-07-29T08:20:37;3.08;;;1.98;;
25169;SDS011;13129;48.012;10.352;2022-07-29T08:23:04;1.90;;;1.80;;
25169;SDS011;13129;48.012;10.352;2022-07-29T08:25:33;2.40;;;2.30;;
25169;SDS011;13129;48.012;10.352;2022-07-29T08:28:04;2.72;;;2.00;;
25169;SDS011;13129;48.012;10.352;2022-07-29T08:30:30;2.40;;;2.20;;
25169;SDS011;13129;48.012;10.352;2022-07-29T08:32:57;2.13;;;1.98;;
25169;SDS011;13129;48.012;10.352;2022-07-29T08:35:23;2.55;;;1.90;;
25169;SDS011;13129;48.012;10.352;2022-07-29T08:37:49;1.85;;;1.75;;
25169;SDS011;13129;48.012;10.352;2022-07-29T08:40:16;1.98;;;1.88;;
25169;SDS011;13129;48.012;10.352;2022-07-29T08:42:41;2.22;;;2.00;;
25169;SDS011;13129;48.012;10.352;2022-07-29T08:45:07;1.88;;;1.77;;
25169;SDS011;13129;48.012;10.352;2022-07-29T08:47:33;2.42;;;2.33;;
25169;SDS011;13129;48.012;10.352;2022-07-29T08:50:03;2.70;;;2.50;;
25169;SDS011;13129;48.012;10.352;2022-07-29T08:52:29;2.83;;;2.20;;
25169;SDS011;13129;48.012;10.352;2022-07-29T08:55:00;2.08;;;1.95;;
25169;SDS011;13129;48.012;10.352;2022-07-29T08:57:27;2.20;;;2.00;;
25169;SDS011;13129;48.012;10.352;2022-07-29T08:59:54;2.97;;;2.25;;
25169;SDS011;13129;48.012;10.352;2022-07-29T09:02:22;2.40;;;2.30;;
25169;SDS011;13129;48.012;10.352;2022-07-29T09:04:49;2.15;;;2.05;;
25169;SDS011;13129;48.012;10.352;2022-07-29T09:07:16;1.98;;;1.80;;
25169;SDS011;13129;48.012;10.352;2022-07-29T09:09:43;2.20;;;2.00;;
25169;SDS011;13129;48.012;10.352;2022-07-29T09:12:09;2.53;;;2.38;;
25169;SDS011;13129;48.012;10.352;2022-07-29T09:14:38;2.33;;;2.13;;
25169;SDS011;13129;48.012;10.352;2022-07-29T09:17:04;2.85;;;2.33;;
25169;SDS011;13129;48.012;10.352;2022-07-29T09:19:32;2.40;;;2.30;;
25169;SDS011;13129;48.012;10.352;2022-07-29T09:22:00;2.38;;;2.20;;
25169;SDS011;13129;48.012;10.352;2022-07-29T09:26:59;2.90;;;2.65;;
25169;SDS011;13129;48.012;10.352;2022-07-29T09:29:26;3.40;;;2.78;;
25169;SDS011;13129;48.012;10.352;2022-07-29T09:31:53;2.90;;;2.70;;
25169;SDS011;13129;48.012;10.352;2022-07-29T09:34:24;3.10;;;2.90;;
25169;SDS011;13129;48.012;10.352;2022-07-29T09:36:55;3.42;;;2.50;;
25169;SDS011;13129;48.012;10.352;2022-07-29T09:39:41;2.70;;;2.50;;
25169;SDS011;13129;48.012;10.352;2022-07-29T09:42:11;2.70;;;2.50;;
25169;SDS011;13129;48.012;10.352;2022-07-29T09:47:08;3.28;;;2.97;;
25169;SDS011;13129;48.012;10.352;2022-07-29T09:49:57;3.45;;;3.15;;
25169;SDS011;13129;48.012;10.352;2022-07-29T09:52:24;2.88;;;2.67;;
25169;SDS011;13129;48.012;10.352;2022-07-29T09:54:52;3.00;;;2.70;;
25169;SDS011;13129;48.012;10.352;2022-07-29T09:57:23;2.78;;;2.58;;
25169;SDS011;13129;48.012;10.352;2022-07-29T10:00:04;3.00;;;2.80;;
25169;SDS011;13129;48.012;10.352;2022-07-29T10:02:35;3.30;;;3.10;;
25169;SDS011;13129;48.012;10.352;2022-07-29T10:05:03;3.33;;;2.83;;
25169;SDS011;13129;48.012;10.352;2022-07-29T10:07:42;3.35;;;2.95;;
25169;SDS011;13129;48.012;10.352;2022-07-29T10:10:10;3.57;;;3.30;;
25169;SDS011;13129;48.012;10.352;2022-07-29T10:12:50;3.63;;;3.33;;
25169;SDS011;13129;48.012;10.352;2022-07-29T10:15:26;3.38;;;2.67;;
25169;SDS011;13129;48.012;10.352;2022-07-29T10:17:54;2.67;;;2.47;;
25169;SDS011;13129;48.012;10.352;2022-07-29T10:20:21;2.75;;;2.38;;
25169;SDS011;13129;48.012;10.352;2022-07-29T10:22:47;2.58;;;2.45;;
25169;SDS011;13129;48.012;10.352;2022-07-29T10:25:14;2.47;;;2.28;;
25169;SDS011;13129;48.012;10.352;2022-07-29T10:27:41;3.15;;;2.72;;
25169;SDS011;13129;48.012;10.352;2022-07-29T10:30:07;2.40;;;2.20;;
25169;SDS011;13129;48.012;10.352;2022-07-29T10:46:26;2.50;;;2.30;;
25169;SDS011;13129;48.012;10.352;2022-07-29T10:54:19;2.25;;;2.13;;
25169;SDS011;13129;48.012;10.352;2022-07-29T11:07:31;2.72;;;2.30;;
25169;SDS011;13129;48.012;10.352;2022-07-29T11:15:11;3.28;;;2.60;;
25169;SDS011;13129;48.012;10.352;2022-07-29T11:31:33;3.55;;;2.65;;
25169;SDS011;13129;48.012;10.352;2022-07-29T11:39:34;5.65;;;2.90;;
25169;SDS011;13129;48.012;10.352;2022-07-29T11:44:58;3.28;;;2.97;;
25169;SDS011;13129;48.012;10.352;2022-07-29T11:50:32;7.88;;;3.10;;
25169;SDS011;13129;48.012;10.352;2022-07-29T11:53:01;3.58;;;3.10;;
25169;SDS011;13129;48.012;10.352;2022-07-29T11:55:34;3.42;;;2.78;;
25169;SDS011;13129;48.012;10.352;2022-07-29T11:58:02;4.22;;;3.83;;
25169;SDS011;13129;48.012;10.352;2022-07-29T12:02:54;3.30;;;2.88;;
25169;SDS011;13129;48.012;10.352;2022-07-29T12:05:21;3.35;;;3.10;;
25169;SDS011;13129;48.012;10.352;2022-07-29T12:07:54;3.08;;;2.75;;
25169;SDS011;13129;48.012;10.352;2022-07-29T12:10:20;3.58;;;3.10;;
25169;SDS011;13129;48.012;10.352;2022-07-29T12:12:50;2.97;;;2.78;;
25169;SDS011;13129;48.012;10.352;2022-07-29T12:15:17;2.90;;;2.58;;
25169;SDS011;13129;48.012;10.352;2022-07-29T12:17:46;5.28;;;2.90;;
25169;SDS011;13129;48.012;10.352;2022-07-29T12:20:13;4.03;;;2.88;;
25169;SDS011;13129;48.012;10.352;2022-07-29T12:22:46;3.55;;;2.70;;
25169;SDS011;13129;48.012;10.352;2022-07-29T12:25:14;3.10;;;2.80;;
25169;SDS011;13129;48.012;10.352;2022-07-29T12:27:42;2.70;;;2.50;;
25169;SDS011;13129;48.012;10.352;2022-07-29T12:30:09;2.97;;;2.78;;
25169;SDS011;13129;48.012;10.352;2022-07-29T12:35:08;3.60;;;2.97;;
25169;SDS011;13129;48.012;10.352;2022-07-29T12:37:39;3.80;;;3.25;;
25169;SDS011;13129;48.012;10.352;2022-07-29T12:40:07;3.92;;;3.42;;
25169;SDS011;13129;48.012;10.352;2022-07-29T12:42:34;3.53;;;3.13;;
25169;SDS011;13129;48.012;10.352;2022-07-29T12:45:01;5.10;;;3.65;;
25169;SDS011;13129;48.012;10.352;2022-07-29T12:47:27;7.15;;;3.70;;
25169;SDS011;13129;48.012;10.352;2022-07-29T12:50:10;3.85;;;3.45;;
25169;SDS011;13129;48.012;10.352;2022-07-29T12:52:41;4.45;;;3.28;;
25169;SDS011;13129;48.012;10.352;2022-07-29T12:55:07;3.97;;;3.30;;
25169;SDS011;13129;48.012;10.352;2022-07-29T12:57:44;3.75;;;3.42;;
25169;SDS011;13129;48.012;10.352;2022-07-29T13:00:15;3.75;;;3.45;;
25169;SDS011;13129;48.012;10.352;2022-07-29T13:02:42;3.70;;;3.40;;
25169;SDS011;13129;48.012;10.352;2022-07-29T13:05:09;3.47;;;3.17;;
25169;SDS011;13129;48.012;10.352;2022-07-29T13:07:36;3.58;;;3.28;;
25169;SDS011;13129;48.012;10.352;2022-07-29T13:10:19;3.65;;;3.33;;
25169;SDS011;13129;48.012;10.352;2022-07-29T13:15:31;4.30;;;3.90;;
25169;SDS011;13129;48.012;10.352;2022-07-29T13:17:57;4.10;;;3.70;;
25169;SDS011;13129;48.012;10.352;2022-07-29T13:20:24;4.30;;;3.90;;
25169;SDS011;13129;48.012;10.352;2022-07-29T13:22:54;5.45;;;3.78;;
25169;SDS011;13129;48.012;10.352;2022-07-29T13:25:25;4.65;;;3.80;;
25169;SDS011;13129;48.012;10.352;2022-07-29T13:27:56;3.85;;;3.22;;
25169;SDS011;13129;48.012;10.352;2022-07-29T13:30:23;3.65;;;3.35;;
25169;SDS011;13129;48.012;10.352;2022-07-29T13:32:50;3.33;;;3.05;;
25169;SDS011;13129;48.012;10.352;2022-07-29T13:35:17;3.33;;;3.03;;
25169;SDS011;13129;48.012;10.352;2022-07-29T13:37:43;3.30;;;3.00;;
25169;SDS011;13129;48.012;10.352;2022-07-29T13:40:10;3.20;;;2.90;;
25169;SDS011;13129;48.012;10.352;2022-07-29T13:42:36;2.72;;;2.55;;
25169;SDS011;13129;48.012;10.352;2022-07-29T13:45:03;2.85;;;2.65;;
25169;SDS011;13129;48.012;10.352;2022-07-29T13:47:30;2.72;;;2.50;;
25169;SDS011;13129;48.012;10.352;2022-07-29T13:49:55;3.20;;;2.90;;
25169;SDS011;13129;48.012;10.352;2022-07-29T13:52:21;4.22;;;3.10;;
25169;SDS011;13129;48.012;10.352;2022-07-29T13:54:47;3.70;;;2.80;;
25169;SDS011;13129;48.012;10.352;2022-07-29T13:57:13;3.13;;;2.92;;
25169;SDS011;13129;48.012;10.352;2022-07-29T13:59:40;4.22;;;3.05;;
25169;SDS011;13129;48.012;10.352;2022-07-29T14:02:06;3.00;;;2.80;;
25169;SDS011;13129;48.012;10.352;2022-07-29T14:04:32;3.63;;;3.33;;
25169;SDS011;13129;48.012;10.352;2022-07-29T14:06:58;3.22;;;2.97;;
25169;SDS011;13129;48.012;10.352;2022-07-29T14:09:24;3.30;;;3.03;;
25169;SDS011;13129;48.012;10.352;2022-07-29T14:11:50;3.25;;;3.03;;
25169;SDS011;13129;48.012;10.352;2022-07-29T14:14:17;2.80;;;2.60;;
25169;SDS011;13129;48.012;10.352;2022-07-29T14:16:43;3.85;;;3.13;;
25169;SDS011;13129;48.012;10.352;2022-07-29T14:19:08;3.10;;;2.90;;
25169;SDS011;13129;48.012;10.352;2022-07-29T14:21:35;3.58;;;2.80;;
25169;SDS011;13129;48.012;10.352;2022-07-29T14:24:02;3.65;;;3.33;;
25169;SDS011;13129;48.012;10.352;2022-07-29T14:26:28;2.90;;;2.67;;
25169;SDS011;13129;48.012;10.352;2022-07-29T14:28:54;3.45;;;3.17;;
25169;SDS011;13129;48.012;10.352;2022-07-29T14:31:20;3.35;;;3.05;;
25169;SDS011;13129;48.012;10.352;2022-07-29T14:33:45;3.80;;;3.50;;
25169;SDS011;13129;48.012;10.352;2022-07-29T14:36:11;3.60;;;3.30;;
25169;SDS011;13129;48.012;10.352;2022-07-29T14:38:37;3.78;;;3.47;;
25169;SDS011;13129;48.012;10.352;2022-07-29T14:41:03;4.07;;;3.50;;
25169;SDS011;13129;48.012;10.352;2022-07-29T14:43:29;3.95;;;3.65;;
25169;SDS011;13129;48.012;10.352;2022-07-29T14:45:55;4.75;;;3.20;;
25169;SDS011;13129;48.012;10.352;2022-07-29T14:48:20;3.55;;;3.25;;
25169;SDS011;13129;48.012;10.352;2022-07-29T14:50:46;4.07;;;3.67;;
25169;SDS011;13129;48.012;10.352;2022-07-29T14:53:12;3.65;;;3.35;;
25169;SDS011;13129;48.012;10.352;2022-07-29T14:55:38;4.00;;;3.70;;
25169;SDS011;13129;48.012;10.352;2022-07-29T14:58:05;3.42;;;3.13;;
25169;SDS011;13129;48.012;10.352;2022-07-29T15:00:31;3.92;;;3.63;;
25169;SDS011;13129;48.012;10.352;2022-07-29T15:02:59;3.85;;;3.53;;
25169;SDS011;13129;48.012;10.352;2022-07-29T15:05:25;4.10;;;3.78;;
25169;SDS011;13129;48.012;10.352;2022-07-29T15:07:51;3.95;;;3.65;;
25169;SDS011;13129;48.012;10.352;2022-07-29T15:10:17;4.43;;;3.80;;
25169;SDS011;13129;48.012;10.352;2022-07-29T15:12:43;4.30;;;3.90;;
25169;SDS011;13129;48.012;10.352;2022-07-29T15:15:09;4.85;;;3.88;;
25169;SDS011;13129;48.012;10.352;2022-07-29T15:17:34;4.70;;;4.28;;
25169;SDS011;13129;48.012;10.352;2022-07-29T15:20:00;4.45;;;4.05;;
25169;SDS011;13129;48.012;10.352;2022-07-29T15:22:27;4.13;;;3.80;;
25169;SDS011;13129;48.012;10.352;2022-07-29T15:24:53;3.38;;;3.15;;
25169;SDS011;13129;48.012;10.352;2022-07-29T15:27:18;3.80;;;3.50;;
25169;SDS011;13129;48.012;10.352;2022-07-29T15:29:44;3.83;;;3.42;;
25169;SDS011;13129;48.012;10.352;2022-07-29T15:32:10;4.13;;;3.72;;
25169;SDS011;13129;48.012;10.352;2022-07-29T15:34:36;25.52;;;4.95;;
25169;SDS011;13129;48.012;10.352;2022-07-29T15:37:02;3.92;;;3.58;;
25169;SDS011;13129;48.012;10.352;2022-07-29T15:39:28;3.85;;;3.55;;
25169;SDS011;13129;48.012;10.352;2022-07-29T15:41:54;4.55;;;4.15;;
25169;SDS011;13129;48.012;10.352;2022-07-29T15:44:20;5.05;;;3.95;;
25169;SDS011;13129;48.012;10.352;2022-07-29T15:46:46;4.20;;;3.80;;
25169;SDS011;13129;48.012;10.352;2022-07-29T15:49:28;4.82;;;4.18;;
25169;SDS011;13129;48.012;10.352;2022-07-29T15:52:01;2.53;;;2.22;;
25169;SDS011;13129;48.012;10.352;2022-07-29T15:54:31;2.28;;;2.10;;
25169;SDS011;13129;48.012;10.352;2022-07-29T15:56:57;1.92;;;1.83;;
25169;SDS011;13129;48.012;10.352;2022-07-29T15:59:23;3.65;;;2.10;;
25169;SDS011;13129;48.012;10.352;2022-07-29T16:01:50;2.70;;;2.42;;
25169;SDS011;13129;48.012;10.352;2022-07-29T16:04:16;3.10;;;2.90;;
25169;SDS011;13129;48.012;10.352;2022-07-29T16:06:42;3.58;;;3.28;;
25169;SDS011;13129;48.012;10.352;2022-07-29T16:09:09;3.30;;;3.00;;
25169;SDS011;13129;48.012;10.352;2022-07-29T16:11:35;3.22;;;3.00;;
25169;SDS011;13129;48.012;10.352;2022-07-29T16:14:01;4.03;;;2.95;;
25169;SDS011;13129;48.012;10.352;2022-07-29T16:16:27;3.70;;;3.15;;
25169;SDS011;13129;48.012;10.352;2022-07-29T16:18:52;4.75;;;3.88;;
25169;SDS011;13129;48.012;10.352;2022-07-29T16:21:18;4.40;;;3.78;;
25169;SDS011;13129;48.012;10.352;2022-07-29T16:23:44;4.18;;;3.70;;
25169;SDS011;13129;48.012;10.352;2022-07-29T16:26:09;6.13;;;3.88;;
25169;SDS011;13129;48.012;10.352;2022-07-29T16:28:35;5.85;;;4.20;;
25169;SDS011;13129;48.012;10.352;2022-07-29T16:31:01;5.13;;;4.18;;
25169;SDS011;13129;48.012;10.352;2022-07-29T16:33:27;5.13;;;3.80;;
25169;SDS011;13129;48.012;10.352;2022-07-29T16:35:53;4.00;;;3.70;;
25169;SDS011;13129;48.012;10.352;2022-07-29T16:38:19;4.07;;;3.63;;
25169;SDS011;13129;48.012;10.352;2022-07-29T16:40:45;3.75;;;3.45;;
25169;SDS011;13129;48.012;10.352;2022-07-29T16:43:11;4.07;;;3.58;;
25169;SDS011;13129;48.012;10.352;2022-07-29T16:45:36;3.70;;;3.40;;
25169;SDS011;13129;48.012;10.352;2022-07-29T16:48:02;6.05;;;3.63;;
25169;SDS011;13129;48.012;10.352;2022-07-29T16:50:28;4.35;;;3.25;;
25169;SDS011;13129;48.012;10.352;2022-07-29T16:52:55;3.97;;;3.58;;
25169;SDS011;13129;48.012;10.352;2022-07-29T16:55:21;3.67;;;3.10;;
25169;SDS011;13129;48.012;10.352;2022-07-29T16:57:47;3.45;;;3.25;;
25169;SDS011;13129;48.012;10.352;2022-07-29T17:00:14;3.83;;;3.38;;
25169;SDS011;13129;48.012;10.352;2022-07-29T17:02:41;3.58;;;3.28;;
25169;SDS011;13129;48.012;10.352;2022-07-29T17:05:07;5.75;;;4.63;;
25169;SDS011;13129;48.012;10.352;2022-07-29T17:07:34;4.43;;;3.88;;
25169;SDS011;13129;48.012;10.352;2022-07-29T17:10:00;5.10;;;3.58;;
25169;SDS011;13129;48.012;10.352;2022-07-29T17:12:28;4.95;;;3.55;;
25169;SDS011;13129;48.012;10.352;2022-07-29T17:14:55;5.55;;;3.72;;
25169;SDS011;13129;48.012;10.352;2022-07-29T17:17:21;4.38;;;3.97;;
25169;SDS011;13129;48.012;10.352;2022-07-29T17:19:46;4.40;;;4.00;;
25169;SDS011;13129;48.012;10.352;2022-07-29T17:22:12;4.80;;;4.40;;
25169;SDS011;13129;48.012;10.352;2022-07-29T17:24:38;4.32;;;4.03;;
25169;SDS011;13129;48.012;10.352;2022-07-29T17:27:04;4.65;;;4.25;;
25169;SDS011;13129;48.012;10.352;2022-07-29T17:29:30;4.80;;;4.40;;
25169;SDS011;13129;48.012;10.352;2022-07-29T17:31:56;4.50;;;4.15;;
25169;SDS011;13129;48.012;10.352;2022-07-29T17:34:23;4.72;;;4.32;;
25169;SDS011;13129;48.012;10.352;2022-07-29T17:36:49;7.53;;;6.22;;
25169;SDS011;13129;48.012;10.352;2022-07-29T17:39:14;4.90;;;4.50;;
25169;SDS011;13129;48.012;10.352;2022-07-29T17:41:40;4.38;;;4.07;;
25169;SDS011;13129;48.012;10.352;2022-07-29T17:44:08;4.05;;;3.75;;
25169;SDS011;13129;48.012;10.352;2022-07-29T17:46:34;4.57;;;4.18;;
25169;SDS011;13129;48.012;10.352;2022-07-29T17:49:00;5.95;;;4.13;;
25169;SDS011;13129;48.012;10.352;2022-07-29T17:51:27;4.25;;;3.85;;
25169;SDS011;13129;48.012;10.352;2022-07-29T17:53:53;4.65;;;4.25;;
25169;SDS011;13129;48.012;10.352;2022-07-29T17:56:20;4.22;;;3.92;;
25169;SDS011;13129;48.012;10.352;2022-07-29T17:58:51;5.35;;;4.88;;
25169;SDS011;13129;48.012;10.352;2022-07-29T18:01:17;5.18;;;4.78;;
25169;SDS011;13129;48.012;10.352;2022-07-29T18:03:43;5.07;;;4.68;;
25169;SDS011;13129;48.012;10.352;2022-07-29T18:06:09;5.47;;;5.07;;
25169;SDS011;13129;48.012;10.352;2022-07-29T18:08:35;5.68;;;5.18;;
25169;SDS011;13129;48.012;10.352;2022-07-29T18:11:01;5.43;;;4.93;;
25169;SDS011;13129;48.012;10.352;2022-07-29T18:13:28;5.53;;;5.07;;
25169;SDS011;13129;48.012;10.352;2022-07-29T18:15:54;6.15;;;5.65;;
25169;SDS011;13129;48.012;10.352;2022-07-29T18:18:20;5.93;;;5.35;;
25169;SDS011;13129;48.012;10.352;2022-07-29T18:20:46;6.45;;;5.43;;
25169;SDS011;13129;48.012;10.352;2022-07-29T18:23:12;5.68;;;5.18;;
25169;SDS011;13129;48.012;10.352;2022-07-29T18:25:38;5.72;;;5.22;;
25169;SDS011;13129;48.012;10.352;2022-07-29T18:28:05;5.88;;;5.45;;
25169;SDS011;13129;48.012;10.352;2022-07-29T18:30:31;6.75;;;6.10;;
25169;SDS011;13129;48.012;10.352;2022-07-29T18:33:06;6.32;;;5.68;;
25169;SDS011;13129;48.012;10.352;2022-07-29T18:35:39;7.30;;;6.68;;
25169;SDS011;13129;48.012;10.352;2022-07-29T18:38:04;6.82;;;6.13;;
25169;SDS011;13129;48.012;10.352;2022-07-29T18:40:30;6.30;;;5.80;;
25169;SDS011;13129;48.012;10.352;2022-07-29T18:42:56;7.28;;;6.55;;
25169;SDS011;13129;48.012;10.352;2022-07-29T18:45:22;7.53;;;6.63;;
25169;SDS011;13129;48.012;10.352;2022-07-29T18:47:48;6.80;;;5.95;;
25169;SDS011;13129;48.012;10.352;2022-07-29T18:50:14;7.03;;;6.38;;
25169;SDS011;13129;48.012;10.352;2022-07-29T18:52:40;6.20;;;5.70;;
25169;SDS011;13129;48.012;10.352;2022-07-29T18:55:06;7.13;;;6.20;;
25169;SDS011;13129;48.012;10.352;2022-07-29T18:57:33;6.82;;;6.13;;
25169;SDS011;13129;48.012;10.352;2022-07-29T18:59:59;6.43;;;5.90;;
25169;SDS011;13129;48.012;10.352;2022-07-29T19:02:24;6.15;;;5.75;;
25169;SDS011;13129;48.012;10.352;2022-07-29T19:04:51;6.00;;;5.53;;
25169;SDS011;13129;48.012;10.352;2022-07-29T19:07:17;6.00;;;5.60;;
25169;SDS011;13129;48.012;10.352;2022-07-29T19:09:43;6.45;;;5.80;;
25169;SDS011;13129;48.012;10.352;2022-07-29T19:12:09;7.10;;;6.47;;
25169;SDS011;13129;48.012;10.352;2022-07-29T19:14:35;6.00;;;5.50;;
25169;SDS011;13129;48.012;10.352;2022-07-29T19:17:01;6.13;;;5.68;;
25169;SDS011;13129;48.012;10.352;2022-07-29T19:19:26;6.70;;;6.10;;
25169;SDS011;13129;48.012;10.352;2022-07-29T19:21:52;6.10;;;5.65;;
25169;SDS011;13129;48.012;10.352;2022-07-29T19:24:17;6.03;;;5.50;;
25169;SDS011;13129;48.012;10.352;2022-07-29T19:26:43;5.55;;;5.05;;